createdAt,value
2018-02-03T00:00:58.281Z,99512.58
2018-02-03T00:03:24.633Z,99502.11
2018-02-03T00:05:51.045Z,99506.66
2018-02-03T00:08:17.395Z,99513.04
2018-02-03T00:10:43.827Z,99505.02
2018-02-03T00:13:10.202Z,99500.14
2018-02-03T00:15:36.531Z,99500.64
2018-02-03T00:18:02.980Z,99495.56
2018-02-03T00:20:29.320Z,99477.61
2018-02-03T00:22:55.669Z,99466.72
2018-02-03T00:25:22.032Z,99454.13
2018-02-03T00:27:48.463Z,99460.49
2018-02-03T00:30:14.842Z,99451.34
2018-02-03T00:32:41.216Z,99446.37
2018-02-03T00:35:07.563Z,99456.74
2018-02-03T00:37:33.895Z,99448.31
2018-02-03T00:40:00.267Z,99446.80
2018-02-03T00:42:26.600Z,99452.66
2018-02-03T00:44:52.979Z,99450.36
2018-02-03T00:47:19.490Z,99447.02
2018-02-03T00:49:45.821Z,99441.19
2018-02-03T00:52:12.171Z,99426.41
2018-02-03T00:54:38.535Z,99427.79
2018-02-03T00:57:04.876Z,99411.92
2018-02-03T00:59:31.247Z,99416.30
2018-02-03T01:01:57.648Z,99425.32
2018-02-03T01:04:23.988Z,99418.38
2018-02-03T01:06:50.445Z,99419.06
2018-02-03T01:09:16.851Z,99413.73
2018-02-03T01:11:43.311Z,99420.81
2018-02-03T01:14:09.744Z,99422.88
2018-02-03T01:16:36.111Z,99421.13
2018-02-03T01:19:02.476Z,99412.59
2018-02-03T01:21:28.820Z,99395.02
2018-02-03T01:23:55.273Z,99390.97
2018-02-03T01:26:21.618Z,99392.11
2018-02-03T01:28:48.024Z,99397.08
2018-02-03T01:31:14.471Z,99394.66
2018-02-03T01:33:40.905Z,99380.31
2018-02-03T01:36:07.304Z,99353.80
2018-02-03T01:38:33.655Z,99354.23
2018-02-03T01:41:00.009Z,99353.70
2018-02-03T01:43:26.380Z,99346.95
2018-02-03T01:45:52.724Z,99343.23
2018-02-03T01:48:19.122Z,99342.20
2018-02-03T01:50:45.488Z,99347.80
2018-02-03T01:53:11.818Z,99327.12
2018-02-03T01:55:38.163Z,99332.86
2018-02-03T01:58:04.658Z,99324.95
2018-02-03T02:00:31.031Z,99321.80
2018-02-03T02:02:57.371Z,99307.95
2018-02-03T02:05:23.795Z,99308.72
2018-02-03T02:07:50.131Z,99301.80
2018-02-03T02:10:16.459Z,99299.88
2018-02-03T02:12:42.832Z,99304.20
2018-02-03T02:15:09.158Z,99311.38
2018-02-03T02:17:35.508Z,99318.23
2018-02-03T02:20:02.011Z,99313.54
2018-02-03T02:22:28.391Z,99313.10
2018-02-03T02:24:54.743Z,99310.73
2018-02-03T02:27:21.111Z,99311.88
2018-02-03T02:29:47.499Z,99316.89
2018-02-03T02:32:13.842Z,99326.83
2018-02-03T02:34:40.218Z,99327.52
2018-02-03T02:37:06.538Z,99335.97
2018-02-03T02:39:32.862Z,99324.61
2018-02-03T02:41:59.247Z,99327.72
2018-02-03T02:44:25.730Z,99317.39
2018-02-03T02:46:52.079Z,99311.22
2018-02-03T02:49:18.453Z,99327.58
2018-02-03T02:51:44.847Z,99324.77
2018-02-03T02:54:11.171Z,99334.43
2018-02-03T02:56:37.559Z,99336.58
2018-02-03T02:59:03.922Z,99342.58
2018-02-03T03:01:30.252Z,99358.94
2018-02-03T03:03:56.643Z,99366.64
2018-02-03T03:06:23.016Z,99368.52
2018-02-03T03:08:49.362Z,99363.45
2018-02-03T03:11:15.727Z,99350.78
2018-02-03T03:13:42.083Z,99354.25
2018-02-03T03:16:08.419Z,99348.55
2018-02-03T03:18:34.827Z,99350.89
2018-02-03T03:21:01.163Z,99344.39
2018-02-03T03:23:27.494Z,99342.61
2018-02-03T03:25:53.907Z,99331.61
2018-02-03T03:28:20.232Z,99316.53
2018-02-03T03:30:46.556Z,99328.19
2018-02-03T03:33:12.882Z,99330.30
2018-02-03T03:35:39.216Z,99330.16
2018-02-03T03:38:05.599Z,99328.45
2018-02-03T03:40:31.954Z,99333.40
2018-02-03T03:42:58.286Z,99335.45
2018-02-03T03:45:24.667Z,99349.94
2018-02-03T03:47:51.022Z,99339.53
2018-02-03T03:50:17.363Z,99344.55
2018-02-03T03:52:43.815Z,99346.30
2018-02-03T03:55:10.195Z,99340.73
2018-02-03T03:57:36.731Z,99352.03
2018-02-03T04:00:03.131Z,99339.42
2018-02-03T04:02:29.474Z,99347.57
2018-02-03T04:04:55.853Z,99347.84
2018-02-03T04:07:22.363Z,99342.19
2018-02-03T04:09:48.719Z,99348.95
2018-02-03T04:12:15.075Z,99337.92
2018-02-03T04:14:41.419Z,99342.44
2018-02-03T04:17:07.841Z,99334.91
2018-02-03T04:19:34.171Z,99342.20
2018-02-03T04:22:00.523Z,99338.61
2018-02-03T04:24:27.215Z,99342.31
2018-02-03T04:26:53.604Z,99342.39
2018-02-03T04:29:20.116Z,99343.80
2018-02-03T04:31:46.447Z,99341.77
2018-02-03T04:34:12.845Z,99345.37
2018-02-03T04:36:39.190Z,99339.67
2018-02-03T04:39:05.544Z,99337.90
2018-02-03T04:41:31.887Z,99335.33
2018-02-03T04:43:58.260Z,99330.73
2018-02-03T04:46:24.607Z,99330.91
2018-02-03T04:48:50.953Z,99327.28
2018-02-03T04:51:17.547Z,99325.68
2018-02-03T04:53:43.891Z,99317.63
2018-02-03T04:56:10.235Z,99310.55
2018-02-03T04:58:36.695Z,99295.58
2018-02-03T05:01:03.111Z,99295.75
2018-02-03T05:03:29.562Z,99272.47
2018-02-03T05:05:55.996Z,99273.91
2018-02-03T05:08:22.366Z,99287.67
2018-02-03T05:10:48.703Z,99299.47
2018-02-03T05:13:15.132Z,99311.78
2018-02-03T05:15:41.506Z,99308.33
2018-02-03T05:18:07.835Z,99322.51
2018-02-03T05:20:34.166Z,99332.38
2018-02-03T05:23:00.541Z,99348.70
2018-02-03T05:25:26.865Z,99343.11
2018-02-03T05:27:53.267Z,99348.59
2018-02-03T05:30:19.644Z,99342.73
2018-02-03T05:32:46.018Z,99338.66
2018-02-03T05:35:12.391Z,99339.86
2018-02-03T05:37:38.762Z,99344.64
2018-02-03T05:40:05.250Z,99322.92
2018-02-03T05:42:31.624Z,99302.02
2018-02-03T05:44:58.038Z,99300.52
2018-02-03T05:47:24.519Z,99286.72
2018-02-03T05:49:50.903Z,99289.48
2018-02-03T05:52:17.306Z,99289.00
2018-02-03T05:54:43.704Z,99285.03
2018-02-03T05:57:10.048Z,99288.12
2018-02-03T05:59:36.375Z,99293.03
2018-02-03T06:02:02.767Z,99283.36
2018-02-03T06:04:29.160Z,99295.62
2018-02-03T06:06:55.548Z,99289.95
2018-02-03T06:09:21.902Z,99282.83
2018-02-03T06:11:48.235Z,99279.60
2018-02-03T06:14:14.803Z,99276.44
2018-02-03T06:16:41.210Z,99279.61
2018-02-03T06:19:07.594Z,99283.55
2018-02-03T06:21:33.943Z,99275.49
2018-02-03T06:24:00.288Z,99280.73
2018-02-03T06:26:26.759Z,99291.13
2018-02-03T06:28:53.108Z,99292.09
2018-02-03T06:31:19.695Z,99303.25
2018-02-03T06:33:46.090Z,99310.00
2018-02-03T06:36:12.475Z,99298.38
2018-02-03T06:38:38.855Z,99303.84
2018-02-03T06:41:05.338Z,99287.52
2018-02-03T06:43:31.671Z,99288.23
2018-02-03T06:45:58.020Z,99280.25
2018-02-03T06:48:24.352Z,99276.02
2018-02-03T06:51:17.648Z,99261.98
2018-02-03T06:53:44.100Z,99267.83
2018-02-03T06:56:10.449Z,99272.52
2018-02-03T06:58:36.788Z,99247.33
2018-02-03T07:01:03.262Z,99253.83
2018-02-03T07:03:29.623Z,99256.68
2018-02-03T07:05:55.951Z,99231.50
2018-02-03T07:08:22.410Z,99240.06
2018-02-03T07:10:48.790Z,99233.98
2018-02-03T07:13:15.291Z,99234.48
2018-02-03T07:15:41.735Z,99219.73
2018-02-03T07:18:08.118Z,99213.44
2018-02-03T07:20:34.622Z,99205.48
2018-02-03T07:23:01.129Z,99194.96
2018-02-03T07:25:27.524Z,99201.20
2018-02-03T07:27:53.859Z,99190.53
2018-02-03T07:30:20.360Z,99177.81
2018-02-03T07:32:46.689Z,99172.14
2018-02-03T07:35:13.148Z,99165.52
2018-02-03T07:37:39.543Z,99164.60
2018-02-03T07:40:05.916Z,99143.27
2018-02-03T07:42:32.316Z,99135.41
2018-02-03T07:44:58.659Z,99128.50
2018-02-03T07:47:25.023Z,99143.28
2018-02-03T07:49:51.422Z,99141.73
2018-02-03T07:52:17.802Z,99146.52
2018-02-03T07:54:44.155Z,99131.77
2018-02-03T07:57:10.651Z,99110.64
2018-02-03T07:59:37.028Z,99110.58
2018-02-03T08:02:03.447Z,99110.66
2018-02-03T08:04:29.863Z,99133.72
2018-02-03T08:06:56.225Z,99148.86
2018-02-03T08:09:22.559Z,99156.94
2018-02-03T08:11:48.902Z,99165.73
2018-02-03T08:14:15.495Z,99153.03
2018-02-03T08:16:41.932Z,99156.27
2018-02-03T08:19:08.310Z,99139.89
2018-02-03T08:21:34.712Z,99156.06
2018-02-03T08:24:01.099Z,99173.59
2018-02-03T08:26:27.688Z,99175.66
2018-02-03T08:28:54.075Z,99156.70
2018-02-03T08:31:20.488Z,99145.09
2018-02-03T08:33:46.888Z,99163.45
2018-02-03T08:36:13.352Z,99169.01
2018-02-03T08:38:39.729Z,99164.29
2018-02-03T08:41:06.317Z,99171.02
2018-02-03T08:43:32.675Z,99168.62
2018-02-03T08:45:59.060Z,99190.45
2018-02-03T08:48:25.510Z,99192.70
2018-02-03T08:50:51.873Z,99183.88
2018-02-03T08:53:18.684Z,99189.95
2018-02-03T08:55:45.076Z,99177.78
2018-02-03T08:58:11.439Z,99182.66
2018-02-03T09:00:38.061Z,99164.63
2018-02-03T09:03:04.679Z,99166.38
2018-02-03T09:05:31.661Z,99160.06
2018-02-03T09:07:58.041Z,99153.09
2018-02-03T09:10:24.539Z,99156.42
2018-02-03T09:12:50.895Z,99162.84
2018-02-03T09:15:17.252Z,99160.66
2018-02-03T09:17:43.780Z,99170.73
2018-02-03T09:20:10.181Z,99167.10
2018-02-03T09:22:36.805Z,99165.36
2018-02-03T09:25:03.259Z,99144.56
2018-02-03T09:27:29.878Z,99139.36
2018-02-03T09:29:56.310Z,99144.56
2018-02-03T09:32:22.775Z,99123.41
2018-02-03T09:34:49.240Z,99129.13
2018-02-03T09:37:15.708Z,99115.98
2018-02-03T09:39:42.227Z,99125.37
2018-02-03T09:42:08.656Z,99131.98
2018-02-03T09:44:35.099Z,99134.72
2018-02-03T09:47:01.567Z,99137.59
2018-02-03T09:49:27.932Z,99130.20
2018-02-03T09:51:54.376Z,99137.92
2018-02-03T09:54:20.856Z,99159.85
2018-02-03T09:56:47.308Z,99146.95
2018-02-03T09:59:13.696Z,99123.41
2018-02-03T10:01:40.253Z,99105.09
2018-02-03T10:04:06.667Z,99103.79
2018-02-03T10:06:33.121Z,99099.02
2018-02-03T10:08:59.814Z,99093.47
2018-02-03T10:11:26.177Z,99091.16
2018-02-03T10:13:52.580Z,99099.97
2018-02-03T10:16:19.106Z,99098.97
2018-02-03T10:18:45.594Z,99095.59
2018-02-03T10:21:12.338Z,99091.38
2018-02-03T10:23:38.740Z,99088.13
2018-02-03T10:26:05.128Z,99087.77
2018-02-03T10:28:31.544Z,99113.80
2018-02-03T10:30:57.931Z,99088.94
2018-02-03T10:33:24.281Z,99078.97
2018-02-03T10:35:50.704Z,99072.64
2018-02-03T10:38:17.112Z,99065.64
2018-02-03T10:40:43.470Z,99064.22
2018-02-03T10:43:09.864Z,99058.30
2018-02-03T10:45:36.230Z,99047.59
2018-02-03T10:48:02.604Z,99037.38
2018-02-03T10:50:28.995Z,99059.00
2018-02-03T10:52:55.352Z,99022.16
2018-02-03T10:55:21.712Z,99011.66
2018-02-03T10:57:48.219Z,98988.02
2018-02-03T11:00:14.639Z,98972.37
2018-02-03T11:02:41.034Z,98961.25
2018-02-03T11:05:07.428Z,98949.11
2018-02-03T11:07:33.764Z,98940.25
2018-02-03T11:10:00.117Z,98942.88
2018-02-03T11:12:26.588Z,98946.30
2018-02-03T11:14:52.955Z,98958.48
2018-02-03T11:17:19.300Z,98941.53
2018-02-03T11:19:45.771Z,98935.45
2018-02-03T11:22:12.251Z,98923.45
2018-02-03T11:24:38.591Z,98886.48
2018-02-03T11:27:04.998Z,98865.14
2018-02-03T11:29:31.324Z,98855.15
2018-02-03T11:31:57.707Z,98857.02
2018-02-03T11:34:24.272Z,98867.61
2018-02-03T11:36:50.711Z,98886.51
2018-02-03T11:39:17.110Z,98893.91
2018-02-03T11:41:43.535Z,98920.73
2018-02-03T11:44:09.916Z,98888.39
2018-02-03T11:46:36.270Z,98899.34
2018-02-03T11:49:02.671Z,98892.14
2018-02-03T11:51:29.068Z,98883.19
2018-02-03T11:53:55.442Z,98884.20
2018-02-03T11:56:21.832Z,98890.52
2018-02-03T11:58:48.213Z,98903.72
2018-02-03T12:01:14.563Z,98895.91
2018-02-03T12:03:40.992Z,98898.39
2018-02-03T12:06:07.778Z,98904.38
2018-02-03T12:08:34.601Z,98897.38
2018-02-03T12:11:01.018Z,98895.52
2018-02-03T12:13:27.424Z,98891.34
2018-02-03T12:15:53.782Z,98890.94
2018-02-03T12:18:20.162Z,98876.02
2018-02-03T12:20:46.592Z,98866.20
2018-02-03T12:23:13.026Z,98872.83
2018-02-03T12:25:39.449Z,98870.42
2018-02-03T12:28:05.888Z,98878.60
2018-02-03T12:30:32.374Z,98901.64
2018-02-03T12:32:59.728Z,98892.80
2018-02-03T12:35:26.136Z,98897.92
2018-02-03T12:37:52.552Z,98889.55
2018-02-03T12:40:18.959Z,98888.22
2018-02-03T12:42:45.403Z,98879.08
2018-02-03T12:45:11.782Z,98872.45
2018-02-03T12:47:38.148Z,98874.28
2018-02-03T12:50:04.641Z,98889.02
2018-02-03T12:52:31.051Z,98893.41
2018-02-03T12:54:57.480Z,98868.91
2018-02-03T12:57:23.899Z,98875.54
2018-02-03T12:59:50.819Z,98873.62
2018-02-03T13:02:17.754Z,98860.56
2018-02-03T13:04:45.370Z,98858.68
2018-02-03T13:07:12.344Z,98875.61
2018-02-03T13:09:38.700Z,98853.06
2018-02-03T13:12:05.206Z,98837.03
2018-02-03T13:14:31.636Z,98832.19
2018-02-03T13:16:58.015Z,98827.37
2018-02-03T13:19:24.376Z,98811.70
2018-02-03T13:21:50.735Z,98811.75
2018-02-03T13:24:17.395Z,98798.11
2018-02-03T13:26:43.831Z,98792.31
2018-02-03T13:29:10.262Z,98792.73
2018-02-03T13:31:36.683Z,98797.05
2018-02-03T13:34:03.026Z,98790.97
2018-02-03T13:36:29.356Z,98783.98
2018-02-03T13:38:55.710Z,98800.20
2018-02-03T13:41:22.222Z,98803.52
2018-02-03T13:43:48.626Z,98815.27
2018-02-03T13:46:14.996Z,98822.71
2018-02-03T13:48:41.367Z,98837.21
2018-02-03T13:51:07.767Z,98845.37
2018-02-03T13:53:34.906Z,98862.64
2018-02-03T13:56:01.270Z,98873.19
2018-02-03T13:58:27.712Z,98884.93
2018-02-03T14:00:54.051Z,98875.88
2018-02-03T14:03:20.402Z,98880.96
2018-02-03T14:05:46.815Z,98862.96
2018-02-03T14:08:13.257Z,98859.16
2018-02-03T14:10:39.661Z,98843.41
2018-02-03T14:13:06.084Z,98830.73
2018-02-03T14:15:32.495Z,98844.47
2018-02-03T14:17:58.864Z,98846.27
2018-02-03T14:20:25.276Z,98852.89
2018-02-03T14:22:51.650Z,98872.11
2018-02-03T14:25:18.064Z,98851.13
2018-02-03T14:27:44.560Z,98844.67
2018-02-03T14:30:10.974Z,98828.02
2018-02-03T14:32:37.392Z,98850.23
2018-02-03T14:35:03.838Z,98831.11
2018-02-03T14:37:30.293Z,98834.98
2018-02-03T14:39:56.639Z,98831.94
2018-02-03T14:42:23.031Z,98828.49
2018-02-03T14:44:49.382Z,98820.27
2018-02-03T14:47:15.735Z,98821.65
2018-02-03T14:49:42.131Z,98810.58
2018-02-03T14:52:08.586Z,98814.86
2018-02-03T14:54:34.956Z,98826.41
2018-02-03T14:57:01.359Z,98798.95
2018-02-03T14:59:27.720Z,98806.83
2018-02-03T15:01:54.043Z,98814.02
2018-02-03T15:04:20.467Z,98819.44
2018-02-03T15:06:46.831Z,98823.34
2018-02-03T15:09:13.391Z,98815.11
2018-02-03T15:11:39.743Z,98829.89
2018-02-03T15:14:06.120Z,98834.37
2018-02-03T15:16:32.527Z,98841.02
2018-02-03T15:18:59.046Z,98845.59
2018-02-03T15:21:25.428Z,98845.49
2018-02-03T15:23:51.816Z,98856.42
2018-02-03T15:26:18.183Z,98855.20
2018-02-03T15:28:44.544Z,98841.92
2018-02-03T15:31:10.964Z,98832.02
2018-02-03T15:33:37.311Z,98857.30
2018-02-03T15:36:03.671Z,98853.27
2018-02-03T15:38:30.144Z,98850.98
2018-02-03T15:40:56.545Z,98836.80
2018-02-03T15:43:22.979Z,98835.87
2018-02-03T15:45:49.455Z,98850.13
2018-02-03T15:48:15.854Z,98852.59
2018-02-03T15:50:42.265Z,98846.00
2018-02-03T15:53:08.632Z,98845.19
2018-02-03T15:55:34.988Z,98872.48
2018-02-03T15:58:01.399Z,98876.10
2018-02-03T16:00:27.794Z,98875.13
2018-02-03T16:02:54.152Z,98865.66
2018-02-03T16:05:20.562Z,98864.75
2018-02-03T16:07:46.920Z,98862.41
2018-02-03T16:10:13.297Z,98861.28
2018-02-03T16:12:39.687Z,98865.78
2018-02-03T16:15:06.194Z,98856.30
2018-02-03T16:17:32.627Z,98849.92
2018-02-03T16:19:58.983Z,98841.31
2018-02-03T16:22:25.341Z,98842.17
2018-02-03T16:24:51.700Z,98850.98
2018-02-03T16:27:18.173Z,98840.59
2018-02-03T16:29:44.874Z,98848.35
2018-02-03T16:32:11.248Z,98852.14
2018-02-03T16:34:37.615Z,98834.41
2018-02-03T16:37:04.026Z,98842.16
2018-02-03T16:39:30.529Z,98841.36
2018-02-03T16:41:57.064Z,98830.36
2018-02-03T16:44:23.472Z,98807.41
2018-02-03T16:46:56.733Z,98811.89
2018-02-03T16:49:23.226Z,98803.39
2018-02-03T16:51:49.602Z,98815.23
2018-02-03T16:54:15.964Z,98818.31
2018-02-03T16:56:42.402Z,98820.61
2018-02-03T16:59:08.782Z,98816.80
2018-02-03T17:01:35.152Z,98792.27
2018-02-03T17:04:01.646Z,98805.22
2018-02-03T17:06:28.667Z,98803.93
2018-02-03T17:08:55.129Z,98806.23
2018-02-03T17:11:21.539Z,98817.93
2018-02-03T17:13:47.899Z,98811.89
2018-02-03T17:16:14.273Z,98802.23
2018-02-03T17:18:40.796Z,98812.94
2018-02-03T17:21:07.168Z,98798.39
2018-02-03T17:23:33.542Z,98785.30
2018-02-03T17:25:59.936Z,98784.41
2018-02-03T17:28:26.304Z,98772.83
2018-02-03T17:30:52.669Z,98757.70
2018-02-03T17:33:20.005Z,98752.94
2018-02-03T17:35:47.098Z,98740.67
2018-02-03T17:38:19.436Z,98730.45
2018-02-03T17:40:45.804Z,98728.53
2018-02-03T17:43:12.167Z,98735.16
2018-02-03T17:45:44.579Z,98715.97
2018-02-03T17:48:11.019Z,98705.65
2018-02-03T17:50:37.452Z,98725.83
2018-02-03T17:55:42.929Z,98720.39
2018-02-03T17:58:09.297Z,98727.44
2018-02-03T18:00:35.651Z,98718.83
2018-02-03T18:03:02.762Z,98726.88
2018-02-03T18:05:29.254Z,98728.25
2018-02-03T18:07:56.407Z,98725.55
2018-02-03T18:10:22.805Z,98730.59
2018-02-03T18:12:50.154Z,98732.67
2018-02-03T18:15:17.459Z,98739.09
2018-02-03T18:17:43.827Z,98736.89
2018-02-03T18:20:10.192Z,98746.03
2018-02-03T18:22:36.625Z,98734.01
2018-02-03T18:25:03.037Z,98724.44
2018-02-03T18:27:29.412Z,98718.48
2018-02-03T18:29:56.668Z,98714.83
2018-02-03T18:32:23.111Z,98703.30
2018-02-03T18:34:50.411Z,98690.91
2018-02-03T18:37:16.806Z,98694.77
2018-02-03T18:39:43.209Z,98695.13
2018-02-03T18:42:09.562Z,98723.32
2018-02-03T18:44:35.911Z,98723.05
2018-02-03T18:47:02.347Z,98741.89
2018-02-03T18:49:28.704Z,98731.13
2018-02-03T18:51:56.051Z,98737.05
2018-02-03T18:54:22.471Z,98751.84
2018-02-03T18:56:48.838Z,98739.32
2018-02-03T18:59:15.287Z,98741.84
2018-02-03T19:01:41.733Z,98734.28
2018-02-03T19:04:08.105Z,98741.05
2018-02-03T19:06:34.463Z,98763.43
2018-02-03T19:09:00.905Z,98763.09
2018-02-03T19:11:28.433Z,98762.51
2018-02-03T19:13:54.876Z,98756.72
2018-02-03T19:16:21.355Z,98762.29
2018-02-03T19:18:47.776Z,98747.81
2018-02-03T19:21:14.145Z,98739.95
2018-02-03T19:23:40.597Z,98719.84
2018-02-03T19:26:14.113Z,98704.87
2018-02-03T19:28:40.534Z,98690.81
2018-02-03T19:31:06.942Z,98687.39
2018-02-03T19:33:33.378Z,98695.08
2018-02-03T19:35:59.790Z,98708.28
2018-02-03T19:38:26.142Z,98719.34
2018-02-03T19:40:52.548Z,98709.60
2018-02-03T19:43:19.488Z,98703.83
2018-02-03T19:45:45.953Z,98721.63
2018-02-03T19:48:12.372Z,98703.69
2018-02-03T19:50:38.768Z,98726.61
2018-02-03T19:53:05.123Z,98716.77
2018-02-03T19:55:33.075Z,98703.27
2018-02-03T19:57:59.426Z,98701.20
2018-02-03T20:00:25.767Z,98719.25
2018-02-03T20:02:52.147Z,98697.01
2018-02-03T20:05:18.520Z,98700.48
2018-02-03T20:07:45.856Z,98702.38
2018-02-03T20:10:12.277Z,98696.05
2018-02-03T20:12:39.436Z,98702.02
2018-02-03T20:15:06.800Z,98725.85
2018-02-03T20:17:33.198Z,98708.97
2018-02-03T20:20:00.565Z,98673.71
2018-02-03T20:22:26.936Z,98688.84
2018-02-03T20:24:53.984Z,98697.94
2018-02-03T20:27:20.460Z,98690.33
2018-02-03T20:29:46.873Z,98688.83
2018-02-03T20:32:13.275Z,98693.08
2018-02-03T20:34:39.647Z,98713.63
2018-02-03T20:37:06.029Z,98723.13
2018-02-03T20:39:32.454Z,98727.03
2018-02-03T20:41:58.832Z,98722.66
2018-02-03T20:44:25.205Z,98735.39
2018-02-03T20:46:51.599Z,98746.67
2018-02-03T20:49:17.966Z,98725.31
2018-02-03T20:51:44.364Z,98727.55
2018-02-03T20:54:10.731Z,98726.20
2018-02-03T20:56:37.181Z,98719.34
2018-02-03T20:59:03.545Z,98735.78
2018-02-03T21:01:29.944Z,98731.53
2018-02-03T21:03:57.322Z,98725.32
2018-02-03T21:06:23.677Z,98731.92
2018-02-03T21:08:51.064Z,98704.22
2018-02-03T21:11:17.448Z,98689.49
2018-02-03T21:13:43.800Z,98709.11
2018-02-03T21:16:10.192Z,98700.47
2018-02-03T21:18:36.566Z,98689.63
2018-02-03T21:21:02.905Z,98686.72
2018-02-03T21:23:29.308Z,98681.02
2018-02-03T21:25:55.662Z,98667.87
2018-02-03T21:28:22.015Z,98680.40
2018-02-03T21:30:48.363Z,98663.23
2018-02-03T21:33:14.819Z,98662.56
2018-02-03T21:35:41.294Z,98687.55
2018-02-03T21:38:07.691Z,98663.16
2018-02-03T21:40:34.165Z,98651.91
2018-02-03T21:43:00.508Z,98650.25
2018-02-03T21:45:26.851Z,98657.58
2018-02-03T21:47:53.287Z,98661.63
2018-02-03T21:50:19.643Z,98646.20
2018-02-03T21:52:46.047Z,98653.98
2018-02-03T21:55:12.423Z,98626.80
2018-02-03T21:57:38.755Z,98642.63
2018-02-03T22:00:05.113Z,98641.98
2018-02-03T22:02:31.564Z,98636.49
2018-02-03T22:04:57.913Z,98618.07
2018-02-03T22:07:24.412Z,98616.99
2018-02-03T22:09:50.868Z,98630.47
2018-02-03T22:12:17.360Z,98613.70
2018-02-03T22:14:43.744Z,98609.62
2018-02-03T22:17:10.168Z,98615.86
2018-02-03T22:19:36.534Z,98616.58
2018-02-03T22:22:02.891Z,98610.93
2018-02-03T22:24:29.248Z,98610.69
2018-02-03T22:26:55.644Z,98575.58
2018-02-03T22:29:22.000Z,98581.88
2018-02-03T22:31:48.361Z,98581.70
2018-02-03T22:34:14.783Z,98601.81
2018-02-03T22:36:41.124Z,98588.44
2018-02-03T22:39:07.513Z,98584.09
2018-02-03T22:41:33.900Z,98576.47
2018-02-03T22:44:00.279Z,98579.12
2018-02-03T22:46:26.650Z,98560.39
2018-02-03T22:48:53.045Z,98543.23
2018-02-03T22:51:19.396Z,98557.47
2018-02-03T22:53:45.796Z,98553.53
2018-02-03T22:56:12.144Z,98546.38
2018-02-03T22:58:38.600Z,98567.53
2018-02-03T23:01:11.041Z,98568.45
2018-02-03T23:03:37.436Z,98560.27
2018-02-03T23:06:03.784Z,98574.14
2018-02-03T23:08:30.197Z,98576.59
2018-02-03T23:10:56.584Z,98553.39
2018-02-03T23:13:22.955Z,98563.34
2018-02-03T23:15:49.360Z,98552.44
2018-02-03T23:18:15.712Z,98563.40
2018-02-03T23:20:42.092Z,98575.44
2018-02-03T23:23:08.454Z,98560.78
2018-02-03T23:25:34.876Z,98573.13
2018-02-03T23:28:01.220Z,98576.91
2018-02-03T23:30:27.575Z,98603.97
2018-02-03T23:32:53.936Z,98590.60
2018-02-03T23:35:20.284Z,98598.69
2018-02-03T23:37:46.624Z,98605.48
2018-02-03T23:40:13.081Z,98572.77
2018-02-03T23:42:39.500Z,98587.12
2018-02-03T23:45:05.844Z,98603.60
2018-02-03T23:47:32.308Z,98584.16
2018-02-03T23:49:58.683Z,98605.71
2018-02-03T23:52:25.016Z,98575.99
2018-02-03T23:54:51.404Z,98568.45
2018-02-03T23:57:17.980Z,98566.63
2018-02-03T23:59:44.412Z,98585.08
